sensor_id;sensor_type;location;lat;lon;timestamp;pressure;altitude;pressure_sealevel;temperature;humidity
39301;BME280;25019;42.626;23.380;2023-03-13T00:02:09;94662.66;;;0.56;68.28
39301;BME280;25019;42.626;23.380;2023-03-13T00:04:34;94531.44;;;-0.29;67.51
39301;BME280;25019;42.626;23.380;2023-03-13T00:07:00;94639.47;;;0.38;67.97
39301;BME280;25019;42.626;23.380;2023-03-13T00:09:26;94649.94;;;0.53;68.31
39301;BME280;25019;42.626;23.380;2023-03-13T00:11:52;94666.44;;;0.54;68.74
39301;BME280;25019;42.626;23.380;2023-03-13T00:14:17;94651.47;;;0.48;69.37
39301;BME280;25019;42.626;23.380;2023-03-13T00:16:43;94661.09;;;0.47;69.62
39301;BME280;25019;42.626;23.380;2023-03-13T00:19:09;94603.22;;;0.05;69.68
39301;BME280;25019;42.626;23.380;2023-03-13T00:21:35;94655.50;;;0.35;70.64
39301;BME280;25019;42.626;23.380;2023-03-13T00:24:06;94667.59;;;0.36;71.95
39301;BME280;25019;42.626;23.380;2023-03-13T00:26:32;94663.53;;;0.34;72.80
39301;BME280;25019;42.626;23.380;2023-03-13T00:28:58;94665.03;;;0.28;73.34
39301;BME280;25019;42.626;23.380;2023-03-13T00:31:27;94675.38;;;0.21;73.04
39301;BME280;25019;42.626;23.380;2023-03-13T00:33:56;94669.53;;;0.19;74.13
39301;BME280;25019;42.626;23.380;2023-03-13T00:36:28;94563.75;;;-0.53;73.84
39301;BME280;25019;42.626;23.380;2023-03-13T00:38:55;94663.91;;;0.07;73.73
39301;BME280;25019;42.626;23.380;2023-03-13T00:41:27;94672.59;;;0.08;73.66
39301;BME280;25019;42.626;23.380;2023-03-13T00:43:53;94679.59;;;0.07;74.14
39301;BME280;25019;42.626;23.380;2023-03-13T00:46:22;94675.53;;;0.05;74.23
39301;BME280;25019;42.626;23.380;2023-03-13T00:48:48;94667.59;;;-0.02;75.28
39301;BME280;25019;42.626;23.380;2023-03-13T00:51:15;94655.31;;;-0.17;74.11
39301;BME280;25019;42.626;23.380;2023-03-13T00:53:42;94668.31;;;-0.08;73.41
39301;BME280;25019;42.626;23.380;2023-03-13T00:56:11;94660.38;;;-0.15;74.42
39301;BME280;25019;42.626;23.380;2023-03-13T00:58:39;94660.81;;;-0.11;75.26
39301;BME280;25019;42.626;23.380;2023-03-13T01:01:08;94656.13;;;-0.16;73.50
39301;BME280;25019;42.626;23.380;2023-03-13T01:03:35;94655.31;;;-0.17;72.78
39301;BME280;25019;42.626;23.380;2023-03-13T01:06:02;94672.69;;;-0.09;71.74
39301;BME280;25019;42.626;23.380;2023-03-13T01:08:29;94670.63;;;-0.13;72.44
39301;BME280;25019;42.626;23.380;2023-03-13T01:11:03;94672.44;;;-0.14;72.33
39301;BME280;25019;42.626;23.380;2023-03-13T01:13:30;94675.84;;;-0.13;71.93
39301;BME280;25019;42.626;23.380;2023-03-13T01:16:01;94656.97;;;-0.24;73.15
39301;BME280;25019;42.626;23.380;2023-03-13T01:18:27;94664.13;;;-0.18;73.50
39301;BME280;25019;42.626;23.380;2023-03-13T01:20:53;94669.22;;;-0.24;75.59
39301;BME280;25019;42.626;23.380;2023-03-13T01:23:18;94672.13;;;-0.42;77.40
39301;BME280;25019;42.626;23.380;2023-03-13T01:25:46;94667.28;;;-0.54;76.85
39301;BME280;25019;42.626;23.380;2023-03-13T01:28:11;94668.63;;;-0.58;76.67
39301;BME280;25019;42.626;23.380;2023-03-13T01:30:37;94666.75;;;-0.72;78.20
39301;BME280;25019;42.626;23.380;2023-03-13T01:33:03;94673.94;;;-0.74;78.59
39301;BME280;25019;42.626;23.380;2023-03-13T01:35:28;94682.81;;;-0.84;79.04
39301;BME280;25019;42.626;23.380;2023-03-13T01:37:54;94685.44;;;-0.92;79.49
39301;BME280;25019;42.626;23.380;2023-03-13T01:40:20;94687.22;;;-0.93;79.29
39301;BME280;25019;42.626;23.380;2023-03-13T01:42:56;94686.09;;;-0.98;79.11
39301;BME280;25019;42.626;23.380;2023-03-13T01:45:49;94688.03;;;-0.92;78.59
39301;BME280;25019;42.626;23.380;2023-03-13T01:48:16;94670.50;;;-1.07;78.59
39301;BME280;25019;42.626;23.380;2023-03-13T01:50:46;94696.00;;;-0.94;78.63
39301;BME280;25019;42.626;23.380;2023-03-13T01:53:21;94686.09;;;-0.98;79.10
39301;BME280;25019;42.626;23.380;2023-03-13T01:55:47;94620.94;;;-1.46;78.95
39301;BME280;25019;42.626;23.380;2023-03-13T01:58:12;94698.47;;;-0.92;79.53
39301;BME280;25019;42.626;23.380;2023-03-13T02:00:39;94587.50;;;-1.66;79.61
39301;BME280;25019;42.626;23.380;2023-03-13T02:03:11;94682.34;;;-0.96;79.68
39301;BME280;25019;42.626;23.380;2023-03-13T02:05:40;94691.28;;;-0.90;79.56
39301;BME280;25019;42.626;23.380;2023-03-13T02:08:11;94690.47;;;-0.91;80.00
39301;BME280;25019;42.626;23.380;2023-03-13T02:10:47;94695.03;;;-0.93;79.53
39301;BME280;25019;42.626;23.380;2023-03-13T02:13:14;94696.19;;;-0.95;80.63
39301;BME280;25019;42.626;23.380;2023-03-13T02:15:41;94582.47;;;-1.68;80.66
39301;BME280;25019;42.626;23.380;2023-03-13T02:18:07;94694.25;;;-1.01;80.52
39301;BME280;25019;42.626;23.380;2023-03-13T02:20:33;94701.63;;;-1.05;80.81
39301;BME280;25019;42.626;23.380;2023-03-13T02:25:46;94716.13;;;-1.11;82.65
39301;BME280;25019;42.626;23.380;2023-03-13T02:28:18;94713.38;;;-1.17;82.47
39301;BME280;25019;42.626;23.380;2023-03-13T02:30:47;94716.50;;;-1.30;82.75
39301;BME280;25019;42.626;23.380;2023-03-13T02:33:14;94713.75;;;-1.37;82.83
39301;BME280;25019;42.626;23.380;2023-03-13T02:35:43;94726.28;;;-1.32;82.55
39301;BME280;25019;42.626;23.380;2023-03-13T02:38:14;94732.47;;;-1.33;83.21
39301;BME280;25019;42.626;23.380;2023-03-13T02:40:43;94731.81;;;-1.36;82.98
39301;BME280;25019;42.626;23.380;2023-03-13T02:43:25;94736.72;;;-1.32;83.02
39301;BME280;25019;42.626;23.380;2023-03-13T02:46:01;94741.91;;;-1.32;82.53
39301;BME280;25019;42.626;23.380;2023-03-13T02:48:34;94743.22;;;-1.37;82.32
39301;BME280;25019;42.626;23.380;2023-03-13T02:51:04;94755.94;;;-1.33;82.71
39301;BME280;25019;42.626;23.380;2023-03-13T02:53:31;94756.91;;;-1.34;83.04
39301;BME280;25019;42.626;23.380;2023-03-13T02:55:58;94666.47;;;-1.99;83.62
39301;BME280;25019;42.626;23.380;2023-03-13T02:58:24;94761.31;;;-1.35;83.98
39301;BME280;25019;42.626;23.380;2023-03-13T03:00:51;94760.47;;;-1.36;84.04
39301;BME280;25019;42.626;23.380;2023-03-13T03:03:17;94751.53;;;-1.41;85.10
39301;BME280;25019;42.626;23.380;2023-03-13T03:05:43;94762.75;;;-1.32;84.83
39301;BME280;25019;42.626;23.380;2023-03-13T03:08:09;94754.28;;;-1.34;85.70
39301;BME280;25019;42.626;23.380;2023-03-13T03:10:35;94751.03;;;-1.37;85.54
39301;BME280;25019;42.626;23.380;2023-03-13T03:13:02;94647.44;;;-2.07;85.83
39301;BME280;25019;42.626;23.380;2023-03-13T03:15:28;94760.66;;;-1.45;86.81
39301;BME280;25019;42.626;23.380;2023-03-13T03:17:54;94666.31;;;-2.14;86.37
39301;BME280;25019;42.626;23.380;2023-03-13T03:20:19;94729.91;;;-1.91;87.43
39301;BME280;25019;42.626;23.380;2023-03-13T03:22:45;94773.06;;;-1.72;86.69
39301;BME280;25019;42.626;23.380;2023-03-13T03:25:11;94766.84;;;-1.79;86.48
39301;BME280;25019;42.626;23.380;2023-03-13T03:27:38;94781.50;;;-1.78;86.30
39301;BME280;25019;42.626;23.380;2023-03-13T03:30:06;94775.00;;;-1.91;86.52
39301;BME280;25019;42.626;23.380;2023-03-13T03:32:34;94728.94;;;-2.23;86.24
39301;BME280;25019;42.626;23.380;2023-03-13T03:35:00;94794.03;;;-1.82;86.52
39301;BME280;25019;42.626;23.380;2023-03-13T03:37:25;94743.22;;;-2.19;86.77
39301;BME280;25019;42.626;23.380;2023-03-13T03:39:51;94792.59;;;-1.85;86.51
39301;BME280;25019;42.626;23.380;2023-03-13T03:42:18;94805.13;;;-1.80;86.38
39301;BME280;25019;42.626;23.380;2023-03-13T03:44:43;94728.09;;;-2.32;87.31
39301;BME280;25019;42.626;23.380;2023-03-13T03:47:10;94803.47;;;-1.89;87.48
39301;BME280;25019;42.626;23.380;2023-03-13T03:49:40;94796.13;;;-2.02;88.46
39301;BME280;25019;42.626;23.380;2023-03-13T03:52:08;94822.97;;;-1.93;88.63
39301;BME280;25019;42.626;23.380;2023-03-13T03:54:37;94832.91;;;-1.97;88.30
39301;BME280;25019;42.626;23.380;2023-03-13T03:57:03;94822.03;;;-2.01;88.13
39301;BME280;25019;42.626;23.380;2023-03-13T03:59:32;94831.31;;;-1.90;87.50
39301;BME280;25019;42.626;23.380;2023-03-13T04:02:08;94834.06;;;-1.91;87.12
39301;BME280;25019;42.626;23.380;2023-03-13T04:04:34;94812.06;;;-2.05;87.00
39301;BME280;25019;42.626;23.380;2023-03-13T04:07:04;94777.03;;;-2.36;87.20
39301;BME280;25019;42.626;23.380;2023-03-13T04:09:31;94829.50;;;-2.06;87.00
39301;BME280;25019;42.626;23.380;2023-03-13T04:11:57;94841.88;;;-2.00;87.15
39301;BME280;25019;42.626;23.380;2023-03-13T04:14:22;94725.41;;;-2.74;86.79
39301;BME280;25019;42.626;23.380;2023-03-13T04:16:50;94848.84;;;-2.00;87.88
39301;BME280;25019;42.626;23.380;2023-03-13T04:19:16;94758.25;;;-2.73;87.72
39301;BME280;25019;42.626;23.380;2023-03-13T04:21:42;94782.03;;;-2.51;88.27
39301;BME280;25019;42.626;23.380;2023-03-13T04:24:14;94786.25;;;-2.50;88.56
39301;BME280;25019;42.626;23.380;2023-03-13T04:26:43;94860.25;;;-2.01;88.76
39301;BME280;25019;42.626;23.380;2023-03-13T04:29:09;94870.34;;;-1.98;89.46
39301;BME280;25019;42.626;23.380;2023-03-13T04:31:53;94866.41;;;-2.02;90.20
39301;BME280;25019;42.626;23.380;2023-03-13T04:34:29;94812.63;;;-2.36;90.37
39301;BME280;25019;42.626;23.380;2023-03-13T04:37:27;94853.88;;;-2.07;90.89
39301;BME280;25019;42.626;23.380;2023-03-13T04:40:11;94852.09;;;-2.15;90.60
39301;BME280;25019;42.626;23.380;2023-03-13T04:43:07;94876.84;;;-1.94;89.91
39301;BME280;25019;42.626;23.380;2023-03-13T04:46:00;94786.41;;;-2.60;90.30
39301;BME280;25019;42.626;23.380;2023-03-13T04:48:34;94896.72;;;-1.93;90.61
39301;BME280;25019;42.626;23.380;2023-03-13T04:51:40;94895.75;;;-1.92;91.29
39301;BME280;25019;42.626;23.380;2023-03-13T04:54:09;94904.25;;;-1.82;91.15
39301;BME280;25019;42.626;23.380;2023-03-13T04:56:57;94913.16;;;-1.84;90.98
39301;BME280;25019;42.626;23.380;2023-03-13T04:59:38;94908.63;;;-1.82;91.58
39301;BME280;25019;42.626;23.380;2023-03-13T05:02:19;94904.69;;;-1.86;90.87
39301;BME280;25019;42.626;23.380;2023-03-13T05:05:20;94860.84;;;-2.16;90.26
39301;BME280;25019;42.626;23.380;2023-03-13T05:07:48;94910.22;;;-1.89;90.19
39301;BME280;25019;42.626;23.380;2023-03-13T05:10:29;94916.09;;;-1.87;90.27
39301;BME280;25019;42.626;23.380;2023-03-13T05:13:04;94813.91;;;-2.49;89.92
39301;BME280;25019;42.626;23.380;2023-03-13T05:15:48;94907.31;;;-1.86;90.20
39301;BME280;25019;42.626;23.380;2023-03-13T05:18:41;94919.66;;;-1.88;90.01
39301;BME280;25019;42.626;23.380;2023-03-13T05:21:33;94917.84;;;-1.96;90.13
39301;BME280;25019;42.626;23.380;2023-03-13T05:24:17;94903.47;;;-2.17;90.31
39301;BME280;25019;42.626;23.380;2023-03-13T05:27:09;94864.19;;;-2.40;89.90
39301;BME280;25019;42.626;23.380;2023-03-13T05:29:44;94932.88;;;-1.82;89.45
39301;BME280;25019;42.626;23.380;2023-03-13T05:32:21;94929.63;;;-1.75;88.85
39301;BME280;25019;42.626;23.380;2023-03-13T05:35:14;94933.59;;;-1.55;88.47
39301;BME280;25019;42.626;23.380;2023-03-13T05:37:56;94942.72;;;-1.51;86.92
39301;BME280;25019;42.626;23.380;2023-03-13T05:41:01;94945.69;;;-1.37;86.83
39301;BME280;25019;42.626;23.380;2023-03-13T05:44:05;94944.22;;;-1.40;85.76
39301;BME280;25019;42.626;23.380;2023-03-13T05:46:51;94891.91;;;-1.63;84.86
39301;BME280;25019;42.626;23.380;2023-03-13T05:49:35;94949.78;;;-1.18;84.93
39301;BME280;25019;42.626;23.380;2023-03-13T05:52:24;94903.16;;;-1.38;84.50
39301;BME280;25019;42.626;23.380;2023-03-13T05:55:16;94937.25;;;-1.06;84.92
39301;BME280;25019;42.626;23.380;2023-03-13T05:58:20;94946.69;;;-0.88;84.46
39301;BME280;25019;42.626;23.380;2023-03-13T06:01:08;94952.06;;;-0.82;84.50
39301;BME280;25019;42.626;23.380;2023-03-13T06:04:00;94906.28;;;-1.01;84.95
39301;BME280;25019;42.626;23.380;2023-03-13T06:06:28;94963.28;;;-0.65;83.00
39301;BME280;25019;42.626;23.380;2023-03-13T06:08:55;94967.72;;;-0.57;82.62
39301;BME280;25019;42.626;23.380;2023-03-13T06:11:23;94950.44;;;-0.58;81.99
39301;BME280;25019;42.626;23.380;2023-03-13T06:13:52;94959.19;;;-0.34;81.98
39301;BME280;25019;42.626;23.380;2023-03-13T06:16:27;94964.69;;;-0.21;81.52
39301;BME280;25019;42.626;23.380;2023-03-13T06:18:57;94962.44;;;0.16;81.25
39301;BME280;25019;42.626;23.380;2023-03-13T06:21:22;94945.72;;;0.34;79.56
39301;BME280;25019;42.626;23.380;2023-03-13T06:23:48;94968.09;;;0.36;79.16
39301;BME280;25019;42.626;23.380;2023-03-13T06:26:13;94972.25;;;0.54;79.03
39301;BME280;25019;42.626;23.380;2023-03-13T06:28:39;94958.91;;;0.95;76.09
39301;BME280;25019;42.626;23.380;2023-03-13T06:31:06;94964.16;;;0.95;75.35
39301;BME280;25019;42.626;23.380;2023-03-13T06:33:32;94968.50;;;1.03;74.85
39301;BME280;25019;42.626;23.380;2023-03-13T06:35:59;94905.44;;;0.51;74.62
39301;BME280;25019;42.626;23.380;2023-03-13T06:38:26;94941.97;;;0.68;74.43
39301;BME280;25019;42.626;23.380;2023-03-13T06:40:52;94901.88;;;0.44;74.65
39301;BME280;25019;42.626;23.380;2023-03-13T06:43:18;94950.03;;;0.81;74.76
39301;BME280;25019;42.626;23.380;2023-03-13T06:45:44;94949.75;;;0.99;74.61
39301;BME280;25019;42.626;23.380;2023-03-13T06:48:10;94940.72;;;1.02;73.35
39301;BME280;25019;42.626;23.380;2023-03-13T06:50:39;94884.94;;;0.63;70.82
39301;BME280;25019;42.626;23.380;2023-03-13T06:53:05;94944.16;;;1.02;70.92
39301;BME280;25019;42.626;23.380;2023-03-13T06:55:32;94939.81;;;0.95;72.64
39301;BME280;25019;42.626;23.380;2023-03-13T06:57:57;94883.56;;;0.76;73.08
39301;BME280;25019;42.626;23.380;2023-03-13T07:00:23;94942.94;;;1.13;71.96
39301;BME280;25019;42.626;23.380;2023-03-13T07:02:50;94945.72;;;1.12;71.31
39301;BME280;25019;42.626;23.380;2023-03-13T07:05:16;94938.06;;;1.10;71.66
39301;BME280;25019;42.626;23.380;2023-03-13T07:07:42;94926.88;;;1.16;71.46
39301;BME280;25019;42.626;23.380;2023-03-13T07:10:09;94938.38;;;1.30;71.11
39301;BME280;25019;42.626;23.380;2023-03-13T07:12:35;94850.81;;;0.65;70.93
39301;BME280;25019;42.626;23.380;2023-03-13T07:15:02;94939.78;;;1.18;71.16
39301;BME280;25019;42.626;23.380;2023-03-13T07:17:28;94916.59;;;1.15;70.48
39301;BME280;25019;42.626;23.380;2023-03-13T07:19:53;94939.81;;;1.33;71.65
39301;BME280;25019;42.626;23.380;2023-03-13T07:22:19;94856.81;;;0.88;71.10
39301;BME280;25019;42.626;23.380;2023-03-13T07:24:44;94924.03;;;1.26;70.20
39301;BME280;25019;42.626;23.380;2023-03-13T07:27:10;94927.88;;;1.15;70.55
39301;BME280;25019;42.626;23.380;2023-03-13T07:29:36;94919.50;;;1.20;70.38
39301;BME280;25019;42.626;23.380;2023-03-13T07:32:01;94942.66;;;1.46;70.23
39301;BME280;25019;42.626;23.380;2023-03-13T07:34:27;94940.31;;;1.52;70.65
39301;BME280;25019;42.626;23.380;2023-03-13T07:36:53;94921.44;;;1.56;70.91
39301;BME280;25019;42.626;23.380;2023-03-13T07:39:18;94933.06;;;1.54;71.10
39301;BME280;25019;42.626;23.380;2023-03-13T07:41:44;94918.38;;;1.53;70.56
39301;BME280;25019;42.626;23.380;2023-03-13T07:44:14;94846.56;;;1.02;69.54
39301;BME280;25019;42.626;23.380;2023-03-13T07:46:40;94935.88;;;1.52;70.24
39301;BME280;25019;42.626;23.380;2023-03-13T07:49:05;94933.19;;;1.45;70.60
39301;BME280;25019;42.626;23.380;2023-03-13T07:51:31;94885.66;;;1.18;72.22
39301;BME280;25019;42.626;23.380;2023-03-13T07:53:57;94936.97;;;1.58;72.10
39301;BME280;25019;42.626;23.380;2023-03-13T07:56:23;94944.22;;;1.71;72.41
39301;BME280;25019;42.626;23.380;2023-03-13T07:58:49;94946.03;;;1.70;73.02
39301;BME280;25019;42.626;23.380;2023-03-13T08:01:20;94928.84;;;1.68;73.77
39301;BME280;25019;42.626;23.380;2023-03-13T08:03:46;94920.13;;;1.75;73.36
39301;BME280;25019;42.626;23.380;2023-03-13T08:06:16;94928.84;;;1.68;73.49
39301;BME280;25019;42.626;23.380;2023-03-13T08:08:43;94932.84;;;1.63;73.76
39301;BME280;25019;42.626;23.380;2023-03-13T08:13:38;94854.63;;;1.30;73.55
39301;BME280;25019;42.626;23.380;2023-03-13T08:16:07;94917.94;;;1.94;73.11
39301;BME280;25019;42.626;23.380;2023-03-13T08:18:34;94924.44;;;2.13;73.91
39301;BME280;25019;42.626;23.380;2023-03-13T08:21:02;94850.91;;;1.85;73.16
39301;BME280;25019;42.626;23.380;2023-03-13T08:23:28;94841.34;;;1.77;73.23
39301;BME280;25019;42.626;23.380;2023-03-13T08:25:53;94901.56;;;2.22;72.16
39301;BME280;25019;42.626;23.380;2023-03-13T08:28:19;94926.28;;;2.49;71.21
39301;BME280;25019;42.626;23.380;2023-03-13T08:30:44;94904.09;;;2.52;70.59
39301;BME280;25019;42.626;23.380;2023-03-13T08:33:10;94901.00;;;2.63;70.34
39301;BME280;25019;42.626;23.380;2023-03-13T08:35:36;94923.91;;;2.54;70.31
39301;BME280;25019;42.626;23.380;2023-03-13T08:38:01;94921.88;;;2.35;71.35
39301;BME280;25019;42.626;23.380;2023-03-13T08:40:27;94929.63;;;2.43;71.13
39301;BME280;25019;42.626;23.380;2023-03-13T08:42:53;94925.41;;;2.64;70.38
39301;BME280;25019;42.626;23.380;2023-03-13T08:45:18;94926.56;;;2.76;70.20
39301;BME280;25019;42.626;23.380;2023-03-13T08:47:44;94931.34;;;2.94;69.57
39301;BME280;25019;42.626;23.380;2023-03-13T08:50:10;94915.50;;;2.81;68.77
39301;BME280;25019;42.626;23.380;2023-03-13T08:52:36;94926.75;;;2.96;68.40
39301;BME280;25019;42.626;23.380;2023-03-13T08:55:01;94927.63;;;3.04;68.45
39301;BME280;25019;42.626;23.380;2023-03-13T08:57:27;94918.06;;;3.18;68.66
39301;BME280;25019;42.626;23.380;2023-03-13T08:59:52;94909.44;;;3.02;67.89
39301;BME280;25019;42.626;23.380;2023-03-13T09:02:18;94914.31;;;3.27;67.40
39301;BME280;25019;42.626;23.380;2023-03-13T09:04:46;94919.50;;;3.49;66.54
39301;BME280;25019;42.626;23.380;2023-03-13T09:07:12;94854.88;;;3.19;65.49
39301;BME280;25019;42.626;23.380;2023-03-13T09:09:38;94917.75;;;3.56;65.74
39301;BME280;25019;42.626;23.380;2023-03-13T09:12:03;94904.91;;;3.68;65.16
39301;BME280;25019;42.626;23.380;2023-03-13T09:14:29;94855.28;;;3.51;64.67
39301;BME280;25019;42.626;23.380;2023-03-13T09:16:55;94913.34;;;3.98;63.74
39301;BME280;25019;42.626;23.380;2023-03-13T09:19:20;94904.91;;;4.03;63.69
39301;BME280;25019;42.626;23.380;2023-03-13T09:21:46;94910.16;;;4.03;62.86
39301;BME280;25019;42.626;23.380;2023-03-13T09:24:14;94900.47;;;4.10;62.95
39301;BME280;25019;42.626;23.380;2023-03-13T09:26:40;94898.44;;;4.05;62.08
39301;BME280;25019;42.626;23.380;2023-03-13T09:29:06;94900.50;;;4.17;62.20
39301;BME280;25019;42.626;23.380;2023-03-13T09:31:32;94900.97;;;4.34;62.34
39301;BME280;25019;42.626;23.380;2023-03-13T09:33:58;94845.03;;;4.05;61.95
39301;BME280;25019;42.626;23.380;2023-03-13T09:36:25;94865.59;;;4.37;61.24
39301;BME280;25019;42.626;23.380;2023-03-13T09:38:54;94901.25;;;4.59;59.92
39301;BME280;25019;42.626;23.380;2023-03-13T09:41:23;94902.66;;;4.62;59.91
39301;BME280;25019;42.626;23.380;2023-03-13T09:49:00;94899.47;;;4.80;59.40
39301;BME280;25019;42.626;23.380;2023-03-13T09:51:36;94896.06;;;4.86;59.76
39301;BME280;25019;42.626;23.380;2023-03-13T09:54:24;94900.53;;;5.06;58.72
39301;BME280;25019;42.626;23.380;2023-03-13T09:57:01;94891.44;;;5.15;58.94
39301;BME280;25019;42.626;23.380;2023-03-13T10:02:28;94896.09;;;5.27;57.10
39301;BME280;25019;42.626;23.380;2023-03-13T10:05:21;94890.22;;;5.38;57.66
39301;BME280;25019;42.626;23.380;2023-03-13T10:07:47;94885.56;;;5.13;57.08
39301;BME280;25019;42.626;23.380;2023-03-13T10:10:18;94886.97;;;5.09;57.71
39301;BME280;25019;42.626;23.380;2023-03-13T10:12:48;94881.28;;;5.12;57.22
39301;BME280;25019;42.626;23.380;2023-03-13T10:18:11;94869.72;;;5.47;57.47
39301;BME280;25019;42.626;23.380;2023-03-13T10:20:39;94867.31;;;5.25;57.43
39301;BME280;25019;42.626;23.380;2023-03-13T10:23:24;94866.31;;;5.19;57.38
39301;BME280;25019;42.626;23.380;2023-03-13T10:25:52;94860.44;;;5.17;57.23
39301;BME280;25019;42.626;23.380;2023-03-13T10:28:18;94805.34;;;5.09;56.21
39301;BME280;25019;42.626;23.380;2023-03-13T10:30:56;94853.28;;;5.65;56.01
39301;BME280;25019;42.626;23.380;2023-03-13T10:33:27;94840.94;;;5.65;56.64
39301;BME280;25019;42.626;23.380;2023-03-13T10:36:19;94800.47;;;5.19;56.69
39301;BME280;25019;42.626;23.380;2023-03-13T10:38:50;94839.69;;;5.75;55.54
39301;BME280;25019;42.626;23.380;2023-03-13T10:43:52;94835.00;;;5.77;55.13
39301;BME280;25019;42.626;23.380;2023-03-13T10:46:29;94823.84;;;5.88;54.56
39301;BME280;25019;42.626;23.380;2023-03-13T10:48:59;94818.97;;;5.85;54.39
39301;BME280;25019;42.626;23.380;2023-03-13T10:51:38;94813.41;;;6.13;54.62
39301;BME280;25019;42.626;23.380;2023-03-13T10:54:31;94784.63;;;6.12;54.27
39301;BME280;25019;42.626;23.380;2023-03-13T10:59:45;94799.38;;;6.26;53.89
39301;BME280;25019;42.626;23.380;2023-03-13T11:02:36;94806.69;;;6.18;54.05
39301;BME280;25019;42.626;23.380;2023-03-13T11:07:53;94792.59;;;6.69;52.69
39301;BME280;25019;42.626;23.380;2023-03-13T11:12:47;94788.63;;;6.85;52.83
39301;BME280;25019;42.626;23.380;2023-03-13T11:15:38;94779.53;;;7.07;52.66
39301;BME280;25019;42.626;23.380;2023-03-13T11:18:23;94776.34;;;7.23;51.85
39301;BME280;25019;42.626;23.380;2023-03-13T11:20:51;94771.94;;;7.35;51.88
39301;BME280;25019;42.626;23.380;2023-03-13T11:23:27;94772.31;;;7.39;51.13
39301;BME280;25019;42.626;23.380;2023-03-13T11:28:44;94764.88;;;7.11;50.96
39301;BME280;25019;42.626;23.380;2023-03-13T11:31:17;94664.75;;;6.65;51.23
39301;BME280;25019;42.626;23.380;2023-03-13T11:55:47;94726.69;;;8.00;48.09
39301;BME280;25019;42.626;23.380;2023-03-13T12:01:16;94714.81;;;8.21;46.91
39301;BME280;25019;42.626;23.380;2023-03-13T12:04:08;94717.22;;;8.22;47.01
39301;BME280;25019;42.626;23.380;2023-03-13T12:06:43;94631.97;;;7.78;47.28
39301;BME280;25019;42.626;23.380;2023-03-13T12:09:40;94693.69;;;8.33;47.73
39301;BME280;25019;42.626;23.380;2023-03-13T12:13:11;94701.81;;;8.31;47.48
39301;BME280;25019;42.626;23.380;2023-03-13T12:17:47;94635.00;;;7.93;48.46
39301;BME280;25019;42.626;23.380;2023-03-13T12:26:17;94622.50;;;8.01;47.33
39301;BME280;25019;42.626;23.380;2023-03-13T12:28:56;94663.06;;;8.37;47.37
39301;BME280;25019;42.626;23.380;2023-03-13T12:31:28;94677.44;;;8.41;47.07
39301;BME280;25019;42.626;23.380;2023-03-13T12:34:05;94673.31;;;8.45;47.67
39301;BME280;25019;42.626;23.380;2023-03-13T12:36:40;94676.69;;;8.52;47.82
39301;BME280;25019;42.626;23.380;2023-03-13T12:44:32;94655.19;;;8.49;46.30
39301;BME280;25019;42.626;23.380;2023-03-13T12:55:22;94666.47;;;8.80;45.04
39301;BME280;25019;42.626;23.380;2023-03-13T13:00:40;94671.66;;;8.63;45.08
39301;BME280;25019;42.626;23.380;2023-03-13T13:05:32;94618.44;;;8.40;44.83
39301;BME280;25019;42.626;23.380;2023-03-13T13:07:58;94673.94;;;8.95;44.45
39301;BME280;25019;42.626;23.380;2023-03-13T13:10:25;94621.34;;;8.87;44.50
39301;BME280;25019;42.626;23.380;2023-03-13T13:15:46;94636.84;;;9.19;44.31
39301;BME280;25019;42.626;23.380;2023-03-13T13:20:47;94674.22;;;9.58;43.29
39301;BME280;25019;42.626;23.380;2023-03-13T13:23:35;94665.78;;;9.61;44.08
39301;BME280;25019;42.626;23.380;2023-03-13T13:39:42;94592.06;;;9.75;42.89
39301;BME280;25019;42.626;23.380;2023-03-13T13:43:17;94644.63;;;10.07;43.05
39301;BME280;25019;42.626;23.380;2023-03-13T13:47:48;94590.56;;;9.96;43.03
39301;BME280;25019;42.626;23.380;2023-03-13T13:50:20;94648.69;;;10.44;42.65
39301;BME280;25019;42.626;23.380;2023-03-13T13:52:47;94642.66;;;10.48;42.16
39301;BME280;25019;42.626;23.380;2023-03-13T13:58:11;94620.50;;;10.26;41.57
39301;BME280;25019;42.626;23.380;2023-03-13T14:01:15;94643.34;;;10.27;41.97
39301;BME280;25019;42.626;23.380;2023-03-13T14:03:41;94563.75;;;9.81;41.72
39301;BME280;25019;42.626;23.380;2023-03-13T14:06:26;94636.19;;;10.27;41.91
39301;BME280;25019;42.626;23.380;2023-03-13T14:08:58;94593.56;;;9.71;42.13
39301;BME280;25019;42.626;23.380;2023-03-13T14:11:37;94638.09;;;10.15;41.54
39301;BME280;25019;42.626;23.380;2023-03-13T14:14:20;94631.03;;;10.38;41.91
39301;BME280;25019;42.626;23.380;2023-03-13T14:16:51;94627.38;;;10.39;42.05
39301;BME280;25019;42.626;23.380;2023-03-13T14:19:28;94631.91;;;10.09;41.20
39301;BME280;25019;42.626;23.380;2023-03-13T14:22:03;94582.75;;;9.72;41.59
39301;BME280;25019;42.626;23.380;2023-03-13T14:24:29;94616.94;;;10.03;41.22
39301;BME280;25019;42.626;23.380;2023-03-13T14:26:55;94629.34;;;10.14;41.46
39301;BME280;25019;42.626;23.380;2023-03-13T14:29:21;94631.03;;;10.38;41.24
39301;BME280;25019;42.626;23.380;2023-03-13T14:31:59;94609.25;;;10.53;41.27
39301;BME280;25019;42.626;23.380;2023-03-13T14:34:26;94607.34;;;10.48;40.92
39301;BME280;25019;42.626;23.380;2023-03-13T14:36:55;94629.78;;;10.74;41.04
39301;BME280;25019;42.626;23.380;2023-03-13T14:39:42;94626.72;;;10.83;40.43
39301;BME280;25019;42.626;23.380;2023-03-13T14:42:11;94622.63;;;10.58;40.65
39301;BME280;25019;42.626;23.380;2023-03-13T14:44:37;94631.34;;;10.53;40.96
39301;BME280;25019;42.626;23.380;2023-03-13T14:47:07;94585.91;;;10.20;40.76
39301;BME280;25019;42.626;23.380;2023-03-13T14:49:33;94624.88;;;10.66;40.45
39301;BME280;25019;42.626;23.380;2023-03-13T14:52:13;94618.94;;;10.59;40.32
39301;BME280;25019;42.626;23.380;2023-03-13T14:57:22;94621.75;;;10.52;40.78
39301;BME280;25019;42.626;23.380;2023-03-13T14:59:50;94586.25;;;10.24;40.80
39301;BME280;25019;42.626;23.380;2023-03-13T15:02:20;94561.72;;;10.34;40.60
39301;BME280;25019;42.626;23.380;2023-03-13T15:04:57;94625.09;;;10.82;39.89
39301;BME280;25019;42.626;23.380;2023-03-13T15:07:39;94607.31;;;10.82;40.09